createdAt,value
2019-03-21T00:01:50.395Z,7.70
2019-03-21T00:04:25.663Z,7.80
2019-03-21T00:07:00.975Z,7.80
2019-03-21T00:09:37.712Z,7.70
2019-03-21T00:12:13.091Z,7.70
2019-03-21T00:15:09.735Z,7.40
2019-03-21T00:17:48.327Z,7.50
2019-03-21T00:20:23.675Z,7.40
2019-03-21T00:22:59.497Z,7.10
2019-03-21T00:25:35.407Z,7.30
2019-03-21T00:28:10.699Z,7.40
2019-03-21T00:30:46.019Z,7.20
2019-03-21T00:33:21.367Z,7.20
2019-03-21T00:35:56.671Z,7.20
2019-03-21T00:38:31.939Z,7.30
2019-03-21T00:41:07.231Z,7.20
2019-03-21T00:43:42.487Z,6.90
2019-03-21T00:46:17.862Z,6.90
2019-03-21T00:48:53.139Z,7.00
2019-03-21T00:51:28.406Z,6.90
2019-03-21T00:54:03.752Z,6.90
2019-03-21T00:56:39.038Z,6.90
2019-03-21T00:59:14.306Z,6.90
2019-03-21T01:01:49.699Z,7.10
2019-03-21T01:04:28.208Z,7.10
2019-03-21T01:07:04.266Z,7.10
2019-03-21T01:09:40.115Z,7.10
2019-03-21T01:12:15.399Z,7.00
2019-03-21T01:14:50.703Z,7.00
2019-03-21T01:17:26.083Z,6.80
2019-03-21T01:20:01.371Z,7.00
2019-03-21T01:22:36.679Z,6.80
2019-03-21T01:25:15.479Z,6.60
2019-03-21T01:27:50.779Z,6.40
2019-03-21T01:30:26.287Z,6.20
2019-03-21T01:33:01.586Z,6.40
2019-03-21T01:35:37.351Z,6.50
2019-03-21T01:38:12.620Z,6.50
2019-03-21T01:40:48.840Z,6.60
2019-03-21T01:43:24.321Z,6.60
2019-03-21T01:45:59.639Z,6.20
2019-03-21T01:48:34.911Z,6.20
2019-03-21T01:51:10.190Z,6.30
2019-03-21T01:53:45.520Z,6.20
2019-03-21T01:56:20.807Z,6.20
2019-03-21T01:58:56.095Z,6.30
2019-03-21T02:01:31.431Z,6.20
2019-03-21T02:04:06.758Z,6.00
2019-03-21T02:06:42.083Z,5.60
2019-03-21T02:09:17.384Z,5.90
2019-03-21T02:11:52.663Z,5.60
2019-03-21T02:14:27.952Z,5.70
2019-03-21T02:17:03.224Z,5.70
2019-03-21T02:19:38.503Z,5.80
2019-03-21T02:22:13.854Z,5.60
2019-03-21T02:24:49.149Z,5.80
2019-03-21T02:27:24.419Z,5.70
2019-03-21T02:29:59.708Z,5.70
2019-03-21T02:32:35.056Z,5.80
2019-03-21T02:35:10.436Z,5.80
2019-03-21T02:37:45.704Z,5.50
2019-03-21T02:43:16.476Z,5.70
2019-03-21T02:45:51.953Z,5.50
2019-03-21T02:48:27.294Z,5.40
2019-03-21T02:51:02.616Z,5.40
2019-03-21T02:53:37.872Z,5.50
2019-03-21T02:56:14.803Z,5.40
2019-03-21T02:58:50.101Z,5.40
2019-03-21T03:01:25.548Z,5.40
2019-03-21T03:04:00.891Z,5.20
2019-03-21T03:06:36.172Z,5.10
2019-03-21T03:09:11.444Z,5.20
2019-03-21T03:11:46.807Z,5.00
2019-03-21T03:14:22.155Z,5.10
2019-03-21T03:16:57.507Z,5.20
2019-03-21T03:19:32.781Z,5.10
2019-03-21T03:22:08.058Z,5.20
2019-03-21T03:24:43.435Z,5.20
2019-03-21T03:27:18.740Z,5.30
2019-03-21T03:29:53.999Z,5.10
2019-03-21T03:32:29.322Z,5.10
2019-03-21T03:35:06.834Z,5.20
2019-03-21T03:37:42.627Z,5.20
2019-03-21T03:40:21.217Z,5.10
2019-03-21T03:42:56.644Z,5.00
2019-03-21T03:45:37.859Z,4.90
2019-03-21T03:48:10.239Z,4.80
2019-03-21T03:50:45.595Z,4.90
2019-03-21T03:53:20.949Z,4.80
2019-03-21T03:55:56.355Z,4.90
2019-03-21T03:58:31.796Z,4.90
2019-03-21T04:01:07.210Z,4.50
2019-03-21T04:03:42.652Z,4.60
2019-03-21T04:06:18.062Z,4.70
2019-03-21T04:08:53.494Z,4.70
2019-03-21T04:11:29.017Z,4.60
2019-03-21T04:14:06.472Z,4.70
2019-03-21T04:16:41.924Z,4.60
2019-03-21T04:19:17.210Z,4.60
2019-03-21T04:21:52.562Z,4.60
2019-03-21T04:24:28.427Z,4.40
2019-03-21T04:27:03.760Z,4.10
2019-03-21T04:29:39.244Z,4.10
2019-03-21T04:32:14.499Z,4.20
2019-03-21T04:34:49.786Z,4.20
2019-03-21T04:37:25.060Z,4.00
2019-03-21T04:40:00.464Z,4.20
2019-03-21T04:42:36.904Z,4.20
2019-03-21T04:45:17.198Z,3.30
2019-03-21T04:47:52.510Z,3.70
2019-03-21T04:50:28.035Z,3.90
2019-03-21T04:53:03.463Z,3.90
2019-03-21T04:55:38.799Z,3.50
2019-03-21T04:58:14.159Z,3.60
2019-03-21T05:00:49.761Z,3.80
2019-03-21T05:03:25.079Z,3.90
2019-03-21T05:06:00.889Z,3.90
2019-03-21T05:08:36.179Z,3.90
2019-03-21T05:11:11.441Z,3.80
2019-03-21T05:13:46.731Z,4.00
2019-03-21T05:16:22.014Z,4.00
2019-03-21T05:18:57.950Z,4.00
2019-03-21T05:21:33.223Z,3.50
2019-03-21T05:24:08.572Z,3.80
2019-03-21T05:26:43.935Z,3.80
2019-03-21T05:29:19.226Z,3.80
2019-03-21T05:31:54.571Z,3.90
2019-03-21T05:34:29.866Z,4.00
2019-03-21T05:37:06.410Z,4.00
2019-03-21T05:39:41.779Z,4.00
2019-03-21T05:42:20.781Z,3.60
2019-03-21T05:44:56.171Z,3.70
2019-03-21T05:47:33.450Z,3.80
2019-03-21T05:50:10.370Z,3.80
2019-03-21T05:52:45.851Z,3.70
2019-03-21T05:55:21.139Z,3.80
2019-03-21T05:57:56.538Z,4.00
2019-03-21T06:00:39.263Z,4.00
2019-03-21T06:03:21.989Z,3.70
2019-03-21T06:06:04.394Z,3.70
2019-03-21T06:08:40.022Z,4.40
2019-03-21T06:11:16.147Z,4.40
2019-03-21T06:13:51.421Z,4.10
2019-03-21T06:16:37.020Z,4.10
2019-03-21T06:19:10.802Z,4.10
2019-03-21T06:22:22.543Z,3.90
2019-03-21T06:25:43.691Z,4.00
2019-03-21T06:28:19.034Z,4.10
2019-03-21T06:30:54.347Z,4.00
2019-03-21T06:33:29.667Z,3.90
2019-03-21T06:36:05.107Z,3.50
2019-03-21T06:38:40.392Z,3.30
2019-03-21T06:41:15.686Z,3.50
2019-03-21T06:43:52.055Z,3.80
2019-03-21T06:46:27.480Z,3.80
2019-03-21T06:49:02.815Z,4.00
2019-03-21T06:51:38.164Z,4.00
2019-03-21T06:54:13.538Z,4.20
2019-03-21T06:56:48.823Z,4.30
2019-03-21T06:59:24.107Z,4.20
2019-03-21T07:01:59.390Z,4.30
2019-03-21T07:04:34.663Z,4.30
2019-03-21T07:07:09.945Z,4.00
2019-03-21T07:09:45.271Z,3.90
2019-03-21T07:12:20.620Z,4.20
2019-03-21T07:14:55.993Z,4.20
2019-03-21T07:17:31.256Z,4.10
2019-03-21T07:20:07.534Z,4.20
2019-03-21T07:22:42.867Z,4.40
2019-03-21T07:25:18.298Z,4.40
2019-03-21T07:27:53.555Z,4.70
2019-03-21T07:30:28.910Z,4.80
2019-03-21T07:33:04.246Z,5.00
2019-03-21T07:35:39.543Z,5.20
2019-03-21T07:38:14.808Z,5.30
2019-03-21T07:40:50.175Z,5.50
2019-03-21T07:43:25.439Z,5.60
2019-03-21T07:46:00.996Z,5.80
2019-03-21T07:48:37.482Z,5.70
2019-03-21T07:51:12.847Z,5.70
2019-03-21T07:53:48.192Z,5.70
2019-03-21T07:56:25.053Z,5.80
2019-03-21T07:59:00.511Z,5.60
2019-03-21T08:01:36.829Z,5.80
2019-03-21T08:04:12.095Z,5.90
2019-03-21T08:06:47.423Z,6.00
2019-03-21T08:09:22.826Z,6.10
2019-03-21T08:11:58.187Z,6.30
2019-03-21T08:14:33.606Z,6.20
2019-03-21T08:17:08.965Z,6.40
2019-03-21T08:19:44.228Z,6.50
2019-03-21T08:22:19.542Z,6.50
2019-03-21T08:24:54.819Z,6.40
2019-03-21T08:27:30.159Z,6.50
2019-03-21T08:30:06.486Z,6.70
2019-03-21T08:32:41.764Z,6.80
2019-03-21T08:35:17.099Z,6.80
2019-03-21T08:37:52.534Z,7.10
2019-03-21T08:40:27.863Z,7.40
2019-03-21T08:43:03.301Z,7.70
2019-03-21T08:45:38.566Z,8.00
2019-03-21T08:48:13.919Z,7.90
2019-03-21T08:50:49.275Z,7.90
2019-03-21T08:53:24.564Z,7.90
2019-03-21T08:55:59.902Z,8.00
2019-03-21T08:58:35.179Z,8.30
2019-03-21T09:01:10.611Z,8.20
2019-03-21T09:03:46.026Z,8.20
2019-03-21T09:06:21.436Z,8.40
2019-03-21T09:08:56.882Z,8.70
2019-03-21T09:11:32.186Z,8.70
2019-03-21T09:14:07.622Z,8.70
2019-03-21T09:16:42.954Z,8.60
2019-03-21T09:19:18.333Z,8.70
2019-03-21T09:21:53.679Z,9.00
2019-03-21T09:24:28.938Z,9.00
2019-03-21T09:27:04.549Z,9.10
2019-03-21T09:29:39.903Z,9.40
2019-03-21T09:32:15.269Z,9.60
2019-03-21T09:34:50.615Z,9.50
2019-03-21T09:37:26.115Z,9.50
2019-03-21T09:40:02.450Z,9.60
2019-03-21T09:42:37.711Z,9.80
2019-03-21T09:45:13.077Z,9.80
2019-03-21T09:47:48.410Z,9.60
2019-03-21T09:50:27.623Z,9.80
2019-03-21T09:53:02.903Z,10.00
2019-03-21T09:55:38.347Z,10.30
2019-03-21T09:58:13.706Z,10.60
2019-03-21T10:00:48.992Z,10.70
2019-03-21T10:03:24.343Z,10.40
2019-03-21T10:05:59.763Z,10.40
2019-03-21T10:08:35.063Z,10.60
2019-03-21T10:11:10.343Z,10.90
2019-03-21T10:13:45.700Z,11.10
2019-03-21T10:16:21.131Z,11.30
2019-03-21T10:18:56.768Z,11.30
2019-03-21T10:21:42.795Z,11.10
2019-03-21T10:24:09.018Z,11.10
2019-03-21T10:26:44.367Z,11.20
2019-03-21T10:29:19.652Z,11.20
2019-03-21T10:31:54.939Z,11.20
2019-03-21T10:34:30.215Z,11.50
2019-03-21T10:37:05.591Z,11.70
2019-03-21T10:39:40.859Z,11.90
2019-03-21T10:42:16.140Z,12.00
2019-03-21T10:44:51.508Z,12.20
2019-03-21T10:47:26.875Z,12.20
2019-03-21T10:50:02.245Z,12.30
2019-03-21T10:52:37.598Z,12.50
2019-03-21T10:55:13.027Z,12.70
2019-03-21T10:57:48.367Z,12.50
2019-03-21T11:00:24.282Z,12.60
2019-03-21T11:02:59.731Z,12.60
2019-03-21T11:05:35.267Z,12.70
2019-03-21T11:08:10.626Z,12.80
2019-03-21T11:10:47.224Z,13.00
2019-03-21T11:13:23.783Z,13.10
2019-03-21T11:15:59.322Z,13.30
2019-03-21T11:18:36.313Z,13.60
2019-03-21T11:21:11.918Z,13.50
2019-03-21T11:23:47.210Z,13.40
2019-03-21T11:26:22.498Z,13.50
2019-03-21T11:28:57.793Z,13.90
2019-03-21T11:31:33.174Z,14.00
2019-03-21T11:34:08.600Z,14.00
2019-03-21T11:36:43.963Z,14.00
2019-03-21T11:39:19.231Z,14.10
2019-03-21T11:41:54.525Z,14.30
2019-03-21T11:44:29.811Z,14.30
2019-03-21T11:47:05.175Z,14.40
2019-03-21T11:49:40.467Z,14.60
2019-03-21T11:52:18.528Z,14.50
2019-03-21T11:54:53.812Z,14.70
2019-03-21T11:57:29.089Z,15.00
2019-03-21T12:00:04.971Z,15.20
2019-03-21T12:02:40.329Z,15.20
2019-03-21T12:05:15.690Z,15.20
2019-03-21T12:07:51.484Z,15.10
2019-03-21T12:10:26.934Z,15.20
2019-03-21T12:13:02.299Z,15.30
2019-03-21T12:15:37.672Z,15.20
2019-03-21T12:18:12.969Z,15.20
2019-03-21T12:20:48.246Z,15.20
2019-03-21T12:23:23.540Z,15.30
2019-03-21T12:25:58.883Z,15.50
2019-03-21T12:28:34.327Z,15.60
2019-03-21T12:31:09.844Z,15.70
2019-03-21T12:33:45.212Z,15.80
2019-03-21T12:36:20.586Z,15.80
2019-03-21T12:38:55.937Z,15.60
2019-03-21T12:41:31.243Z,15.50
2019-03-21T12:44:06.707Z,15.70
2019-03-21T12:46:42.063Z,15.60
2019-03-21T12:49:17.356Z,15.70
2019-03-21T12:51:52.773Z,15.60
2019-03-21T12:54:29.203Z,15.70
2019-03-21T12:57:04.646Z,15.70
2019-03-21T12:59:39.990Z,15.60
2019-03-21T13:02:15.335Z,15.70
2019-03-21T13:04:50.931Z,15.70
2019-03-21T13:07:26.242Z,15.80
2019-03-21T13:10:01.754Z,15.80
2019-03-21T13:12:37.161Z,16.00
2019-03-21T13:15:12.594Z,16.20
2019-03-21T13:17:47.890Z,16.30
2019-03-21T13:20:23.585Z,16.40
2019-03-21T13:22:58.976Z,16.30
2019-03-21T13:25:34.483Z,16.20
2019-03-21T13:28:09.743Z,16.30
2019-03-21T13:30:45.258Z,16.50
2019-03-21T13:33:20.895Z,16.50
2019-03-21T13:35:56.265Z,16.70
2019-03-21T13:38:31.695Z,16.80
2019-03-21T13:41:07.139Z,16.80
2019-03-21T13:43:42.415Z,16.90
2019-03-21T13:46:17.774Z,17.00
2019-03-21T13:48:53.119Z,17.10
2019-03-21T13:51:28.424Z,17.20
2019-03-21T13:54:03.887Z,16.90
2019-03-21T13:56:39.174Z,17.10
2019-03-21T13:59:14.670Z,17.40
2019-03-21T14:01:49.978Z,17.20
2019-03-21T14:04:25.364Z,16.90
2019-03-21T14:07:00.662Z,16.80
2019-03-21T14:09:36.087Z,16.60
2019-03-21T14:12:11.459Z,16.60
2019-03-21T14:14:46.835Z,16.40
2019-03-21T14:17:22.469Z,16.40
2019-03-21T14:19:57.931Z,16.30
2019-03-21T14:22:33.219Z,16.50
2019-03-21T14:25:08.757Z,16.40
2019-03-21T14:27:44.262Z,16.50
2019-03-21T14:30:19.799Z,16.70
2019-03-21T14:32:55.101Z,16.70
2019-03-21T14:35:30.450Z,17.00
2019-03-21T14:38:05.746Z,17.20
2019-03-21T14:40:41.043Z,17.40
2019-03-21T14:43:16.555Z,17.40
2019-03-21T14:45:51.831Z,17.30
2019-03-21T14:48:27.170Z,17.30
2019-03-21T14:51:02.637Z,17.10
2019-03-21T14:53:37.946Z,17.00
2019-03-21T14:56:13.439Z,16.80
2019-03-21T14:58:48.803Z,16.80
2019-03-21T15:01:24.163Z,16.70
2019-03-21T15:04:00.647Z,16.80
2019-03-21T15:06:35.989Z,17.10
2019-03-21T15:09:11.991Z,17.20
2019-03-21T15:11:47.488Z,17.10
2019-03-21T15:14:22.954Z,16.90
2019-03-21T15:16:58.303Z,16.90
2019-03-21T15:19:34.152Z,16.90
2019-03-21T15:22:09.530Z,17.00
2019-03-21T15:24:44.963Z,17.00
2019-03-21T15:27:20.327Z,17.10
2019-03-21T15:29:55.772Z,17.30
2019-03-21T15:32:31.206Z,17.10
2019-03-21T15:35:09.000Z,17.00
2019-03-21T15:37:44.343Z,17.20
2019-03-21T15:40:19.727Z,17.30
2019-03-21T15:42:57.046Z,17.30
2019-03-21T15:45:32.174Z,17.40
2019-03-21T15:48:07.595Z,17.30
2019-03-21T15:50:43.035Z,17.50
2019-03-21T15:53:18.383Z,17.50
2019-03-21T15:55:53.671Z,17.50
2019-03-21T15:58:29.050Z,17.40
2019-03-21T16:01:04.703Z,17.40
2019-03-21T16:03:40.027Z,17.30
2019-03-21T16:06:15.302Z,17.30
2019-03-21T16:08:50.611Z,17.30
2019-03-21T16:11:25.951Z,17.40
2019-03-21T16:14:01.305Z,17.40
2019-03-21T16:16:36.667Z,17.40
2019-03-21T16:19:11.967Z,17.40
2019-03-21T16:21:47.311Z,17.20
2019-03-21T16:24:22.591Z,17.00
2019-03-21T16:26:57.863Z,17.10
2019-03-21T16:29:33.240Z,16.90
2019-03-21T16:32:08.603Z,16.90
2019-03-21T16:34:43.944Z,16.90
2019-03-21T16:37:19.221Z,16.80
2019-03-21T16:39:54.506Z,17.00
2019-03-21T16:42:29.791Z,17.00
2019-03-21T16:45:06.792Z,16.90
2019-03-21T16:47:42.087Z,17.10
2019-03-21T16:50:17.583Z,17.00
2019-03-21T16:52:52.931Z,16.90
2019-03-21T16:55:28.212Z,16.80
2019-03-21T16:58:03.677Z,16.60
2019-03-21T17:00:39.021Z,16.60
2019-03-21T17:03:14.437Z,16.60
2019-03-21T17:05:49.806Z,16.50
2019-03-21T17:08:25.159Z,16.60
2019-03-21T17:11:00.473Z,16.60
2019-03-21T17:13:55.022Z,16.60
2019-03-21T17:16:30.467Z,16.50
2019-03-21T17:19:05.765Z,16.60
2019-03-21T17:21:41.155Z,16.60
2019-03-21T17:24:28.420Z,16.60
2019-03-21T17:26:54.695Z,16.60
2019-03-21T17:29:30.015Z,16.30
2019-03-21T17:32:05.531Z,16.40
2019-03-21T17:34:40.980Z,16.40
2019-03-21T17:37:16.334Z,16.30
2019-03-21T17:39:52.751Z,16.30
2019-03-21T17:42:28.119Z,16.20
2019-03-21T17:45:03.816Z,16.10
2019-03-21T17:47:39.179Z,16.00
2019-03-21T17:50:15.142Z,16.00
2019-03-21T17:52:50.611Z,16.10
2019-03-21T17:55:26.073Z,16.20
2019-03-21T17:58:01.399Z,16.20
2019-03-21T18:00:37.146Z,16.30
2019-03-21T18:03:13.546Z,16.20
2019-03-21T18:05:48.927Z,16.20
2019-03-21T18:08:25.386Z,16.00
2019-03-21T18:11:00.856Z,16.10
2019-03-21T18:13:36.205Z,16.00
2019-03-21T18:16:11.704Z,16.10
2019-03-21T18:18:47.087Z,16.00
2019-03-21T18:21:22.472Z,16.00
2019-03-21T18:23:57.931Z,15.90
2019-03-21T18:26:33.231Z,15.80
2019-03-21T18:29:09.669Z,15.80
2019-03-21T18:31:46.035Z,15.80
2019-03-21T18:34:21.374Z,15.70
2019-03-21T18:36:56.899Z,15.60
2019-03-21T18:39:32.324Z,15.60
2019-03-21T18:42:07.952Z,15.50
2019-03-21T18:44:43.495Z,15.20
2019-03-21T18:47:18.823Z,15.20
2019-03-21T18:49:54.193Z,15.20
2019-03-21T18:52:29.549Z,15.20
2019-03-21T18:55:07.057Z,15.20
2019-03-21T18:57:42.674Z,15.10
2019-03-21T19:00:19.068Z,15.00
2019-03-21T19:02:54.631Z,15.10
2019-03-21T19:05:29.922Z,15.00
2019-03-21T19:08:05.399Z,15.00
2019-03-21T19:10:40.765Z,14.90
2019-03-21T19:13:16.119Z,14.70
2019-03-21T19:15:51.423Z,14.40
2019-03-21T19:18:26.783Z,14.50
2019-03-21T19:21:02.062Z,14.40
2019-03-21T19:23:37.548Z,14.30
2019-03-21T19:26:12.902Z,14.30
2019-03-21T19:28:48.261Z,14.30
2019-03-21T19:31:23.618Z,14.40
2019-03-21T19:33:58.875Z,14.10
2019-03-21T19:36:34.195Z,14.00
2019-03-21T19:39:10.019Z,13.80
2019-03-21T19:41:45.403Z,13.70
2019-03-21T19:44:20.660Z,13.60
2019-03-21T19:46:56.046Z,13.20
2019-03-21T19:49:31.391Z,13.20
2019-03-21T19:52:06.688Z,13.20
2019-03-21T19:54:42.059Z,13.30
2019-03-21T19:57:17.351Z,13.40
2019-03-21T19:59:52.747Z,13.40
2019-03-21T20:02:28.027Z,13.40
2019-03-21T20:05:05.131Z,13.40
2019-03-21T20:07:41.388Z,13.40
2019-03-21T20:10:17.122Z,13.40
2019-03-21T20:12:52.466Z,13.40
2019-03-21T20:15:29.047Z,13.40
2019-03-21T20:18:04.719Z,13.30
2019-03-21T20:20:40.250Z,13.30
2019-03-21T20:23:15.538Z,13.20
2019-03-21T20:25:51.098Z,13.00
2019-03-21T20:28:26.438Z,13.00
2019-03-21T20:31:01.882Z,12.80
2019-03-21T20:33:38.339Z,12.80
2019-03-21T20:36:13.656Z,12.70
2019-03-21T20:38:49.103Z,12.80
2019-03-21T20:41:25.014Z,12.80
2019-03-21T20:44:00.299Z,12.80
2019-03-21T20:46:35.741Z,12.50
2019-03-21T20:49:11.184Z,12.10
2019-03-21T20:51:46.462Z,11.90
2019-03-21T20:54:21.791Z,11.90
2019-03-21T20:56:57.242Z,12.00
2019-03-21T20:59:33.214Z,12.10
2019-03-21T21:02:08.523Z,11.80
2019-03-21T21:04:44.163Z,11.80
2019-03-21T21:07:20.666Z,11.80
2019-03-21T21:09:56.011Z,11.90
2019-03-21T21:12:31.454Z,11.90
2019-03-21T21:15:07.958Z,11.90
2019-03-21T21:17:43.443Z,11.90
2019-03-21T21:20:19.439Z,12.00
2019-03-21T21:22:54.893Z,12.00
2019-03-21T21:25:30.171Z,11.90
2019-03-21T21:28:05.623Z,12.10
2019-03-21T21:30:40.890Z,12.20
2019-03-21T21:33:16.343Z,11.80
2019-03-21T21:35:51.686Z,11.70
2019-03-21T21:38:27.043Z,11.40
2019-03-21T21:41:02.322Z,10.70
2019-03-21T21:43:37.654Z,11.00
2019-03-21T21:46:13.079Z,11.20
2019-03-21T21:48:48.379Z,11.30
2019-03-21T21:51:23.761Z,11.10
2019-03-21T21:53:59.047Z,11.20
2019-03-21T21:56:36.414Z,11.40
2019-03-21T21:59:11.767Z,11.30
2019-03-21T22:01:47.071Z,11.20
2019-03-21T22:04:22.405Z,11.20
2019-03-21T22:06:57.774Z,11.30
2019-03-21T22:09:33.122Z,11.40
2019-03-21T22:12:09.551Z,11.40
2019-03-21T22:14:44.835Z,11.40
2019-03-21T22:17:20.226Z,11.40
2019-03-21T22:19:55.514Z,11.40
2019-03-21T22:22:30.815Z,11.30
2019-03-21T22:25:08.060Z,11.20
2019-03-21T22:27:43.518Z,10.30
2019-03-21T22:30:19.356Z,10.50
2019-03-21T22:32:54.634Z,10.70
2019-03-21T22:35:30.013Z,10.80
2019-03-21T22:38:05.411Z,10.90
2019-03-21T22:40:40.713Z,10.70
2019-03-21T22:43:16.076Z,10.70
2019-03-21T22:45:51.454Z,10.90
2019-03-21T22:48:26.735Z,10.80
2019-03-21T22:51:02.026Z,10.90
2019-03-21T22:53:37.351Z,10.60
2019-03-21T22:56:12.622Z,9.90
2019-03-21T22:58:47.907Z,10.10
2019-03-21T23:01:23.535Z,10.40
2019-03-21T23:03:58.899Z,10.50
2019-03-21T23:06:35.118Z,10.50
2019-03-21T23:09:10.475Z,10.40
2019-03-21T23:11:45.830Z,10.50
2019-03-21T23:14:21.114Z,10.50
2019-03-21T23:16:56.474Z,10.40
2019-03-21T23:19:31.907Z,10.40
2019-03-21T23:22:07.190Z,10.40
2019-03-21T23:24:42.551Z,10.30
2019-03-21T23:27:17.827Z,10.40
2019-03-21T23:29:53.221Z,10.40
2019-03-21T23:32:28.643Z,10.40
2019-03-21T23:35:04.107Z,10.30
2019-03-21T23:37:40.618Z,10.20
2019-03-21T23:40:16.162Z,10.10
2019-03-21T23:42:51.443Z,10.00
2019-03-21T23:45:26.870Z,10.10
2019-03-21T23:48:02.211Z,10.10
2019-03-21T23:50:37.504Z,10.20
2019-03-21T23:53:12.786Z,9.50
2019-03-21T23:55:48.074Z,9.70
2019-03-21T23:58:23.400Z,9.70
